Time;durP1;ratioP1;P1;durP2;ratioP2;P2;SDS_P1;SDS_P2;PMS_P1;PMS_P2;Temp;Humidity;BMP_temperature;BMP_pressure;BME280_temperature;BME280_humidity;BME280_pressure;Samples;Min_cycle;Max_cycle;Signal;HPM_P1;HPM_P2
2022/09/18 00:05:57;;;;;;;0.90;0.90;;;;;;;;;;12593121;28;20041;-78
2022/09/18 00:11:59;;;;;;;1.17;1.10;;;;;;;;;;12592385;28;20036;-79
2022/09/18 00:18:01;;;;;;;0.80;0.80;;;;;;;;;;12590227;28;20103;-78
2022/09/18 00:24:04;;;;;;;0.80;0.80;;;;;;;;;;12591144;28;20386;-79
2022/09/18 00:30:06;;;;;;;1.35;0.93;;;;;;;;;;12592415;28;20397;-79
2022/09/18 00:36:10;;;;;;;1.00;0.90;;;;;;;;;;12591005;28;20043;-79
2022/09/18 00:42:12;;;;;;;3.88;1.20;;;;;;;;;;12590015;28;20356;-79
2022/09/18 00:48:14;;;;;;;1.30;1.20;;;;;;;;;;12591357;28;20501;-79
2022/09/18 00:54:22;;;;;;;1.10;1.00;;;;;;;;;;12589903;28;20044;-78
2022/09/18 01:00:25;;;;;;;0.73;0.73;;;;;;;;;;12589600;28;20032;-78
2022/09/18 01:06:33;;;;;;;0.80;0.80;;;;;;;;;;12589876;28;20048;-79
2022/09/18 01:12:41;;;;;;;1.38;1.30;;;;;;;;;;12589885;28;20044;-78
2022/09/18 01:18:51;;;;;;;2.35;0.98;;;;;;;;;;12588431;28;20366;-78
2022/09/18 01:24:55;;;;;;;0.93;0.93;;;;;;;;;;12589011;28;20036;-79
2022/09/18 01:31:01;;;;;;;1.70;1.60;;;;;;;;;;12596591;28;20036;-78
2022/09/18 01:37:06;;;;;;;1.50;1.40;;;;;;;;;;12598840;28;20036;-79
2022/09/18 01:43:10;;;;;;;1.55;1.45;;;;;;;;;;12598624;28;20044;-79
2022/09/18 01:49:14;;;;;;;1.52;1.42;;;;;;;;;;12597935;28;20060;-78
2022/09/18 01:55:23;;;;;;;1.58;1.48;;;;;;;;;;12598279;28;20306;-79
2022/09/18 02:01:28;;;;;;;1.60;1.50;;;;;;;;;;12597148;28;20020;-78
2022/09/18 02:07:38;;;;;;;1.80;1.70;;;;;;;;;;12597887;28;20032;-77
2022/09/18 02:13:41;;;;;;;1.77;1.67;;;;;;;;;;12597450;28;20043;-77
2022/09/18 02:19:43;;;;;;;;;;;;;;;;;;12598043;28;20048;-77
2022/09/18 02:25:49;;;;;;;1.65;1.55;;;;;;;;;;12597091;28;20294;-77
2022/09/18 02:31:51;;;;;;;1.70;1.60;;;;;;;;;;12597399;28;20032;-77
2022/09/18 02:38:12;;;;;;;2.88;2.67;;;;;;;;;;12597734;28;20036;-78
2022/09/18 02:44:22;;;;;;;1.90;1.80;;;;;;;;;;12595460;28;20047;-78
2022/09/18 02:50:34;;;;;;;2.63;2.42;;;;;;;;;;12596535;28;20060;-78
2022/09/18 02:56:36;;;;;;;1.80;1.70;;;;;;;;;;12595225;28;20378;-78
2022/09/18 03:02:39;;;;;;;2.75;2.30;;;;;;;;;;12595353;28;20041;-77
2022/09/18 03:08:42;;;;;;;1.90;1.80;;;;;;;;;;12578484;28;20028;-77
2022/09/18 03:14:44;;;;;;;1.97;1.87;;;;;;;;;;12596060;28;20051;-77
2022/09/18 03:20:46;;;;;;;1.87;1.77;;;;;;;;;;12594397;28;20068;-77
2022/09/18 03:26:49;;;;;;;1.70;1.60;;;;;;;;;;12593362;28;20047;-77
2022/09/18 03:32:51;;;;;;;;;;;;;;;;;;12594519;28;20512;-78
2022/09/18 03:38:52;;;;;;;1.83;1.73;;;;;;;;;;12593808;28;20372;-79
2022/09/18 03:44:56;;;;;;;1.70;1.60;;;;;;;;;;12593146;28;20045;-78
2022/09/18 03:51:02;;;;;;;1.40;1.30;;;;;;;;;;12594790;28;20090;-78
2022/09/18 03:57:05;;;;;;;1.98;1.65;;;;;;;;;;12592103;28;20520;-79
2022/09/18 04:03:26;;;;;;;1.80;1.70;;;;;;;;;;12588489;28;20036;-77
2022/09/18 04:09:46;;;;;;;1.98;1.88;;;;;;;;;;12587325;28;20070;-78
2022/09/18 04:15:49;;;;;;;2.88;1.90;;;;;;;;;;12591383;28;20034;-77
2022/09/18 04:21:51;;;;;;;1.73;1.63;;;;;;;;;;12590731;28;20086;-77
2022/09/18 04:27:53;;;;;;;1.67;1.57;;;;;;;;;;12591400;28;20024;-77
2022/09/18 04:33:55;;;;;;;;;;;;;;;;;;12591541;28;20031;-78
2022/09/18 04:39:58;;;;;;;1.57;1.47;;;;;;;;;;12591219;28;19908;-78
2022/09/18 04:46:00;;;;;;;2.30;2.08;;;;;;;;;;12591367;28;20041;-78
2022/09/18 04:52:02;;;;;;;1.70;1.60;;;;;;;;;;12590608;28;20501;-78
2022/09/18 04:58:04;;;;;;;1.87;1.77;;;;;;;;;;12590794;28;20032;-78
2022/09/18 05:04:08;;;;;;;2.85;2.65;;;;;;;;;;12590273;28;20051;-77
2022/09/18 05:10:22;;;;;;;2.45;2.25;;;;;;;;;;12584508;28;20477;-77
2022/09/18 05:16:24;;;;;;;2.30;2.20;;;;;;;;;;12589429;28;20039;-77
2022/09/18 05:22:45;;;;;;;2.70;2.50;;;;;;;;;;12589961;28;20040;-77
2022/09/18 05:28:50;;;;;;;2.10;2.00;;;;;;;;;;12589432;28;20029;-77
2022/09/18 05:34:52;;;;;;;2.85;2.65;;;;;;;;;;12595665;28;20032;-78
2022/09/18 05:40:58;;;;;;;2.70;2.50;;;;;;;;;;12596030;28;20496;-78
2022/09/18 05:47:00;;;;;;;1.95;1.73;;;;;;;;;;12589407;28;20052;-79
2022/09/18 05:53:04;;;;;;;1.83;1.55;;;;;;;;;;12589033;28;20508;-78
2022/09/18 05:59:15;;;;;;;1.75;1.65;;;;;;;;;;12589024;28;20033;-78
2022/09/18 06:05:20;;;;;;;1.50;1.40;;;;;;;;;;12589069;28;20484;-78
2022/09/18 06:11:22;;;;;;;;;;;;;;;;;;12588981;28;20039;-78
2022/09/18 06:17:24;;;;;;;2.83;2.63;;;;;;;;;;12594149;28;19912;-78
2022/09/18 06:23:29;;;;;;;3.03;2.83;;;;;;;;;;12597407;28;20052;-78
2022/09/18 06:29:43;;;;;;;2.58;2.38;;;;;;;;;;12596859;28;20508;-79
2022/09/18 06:35:50;;;;;;;1.70;1.60;;;;;;;;;;12597312;28;20477;-77
2022/09/18 06:42:01;;;;;;;1.85;1.75;;;;;;;;;;12596263;28;20396;-77
2022/09/18 06:48:21;;;;;;;1.40;1.30;;;;;;;;;;12593642;28;20065;-77
2022/09/18 06:54:23;;;;;;;1.40;1.30;;;;;;;;;;12595515;28;20036;-77
2022/09/18 07:00:26;;;;;;;2.90;1.50;;;;;;;;;;12595378;28;20030;-77
2022/09/18 07:06:28;;;;;;;1.02;0.93;;;;;;;;;;12596877;28;20048;-78
2022/09/18 07:12:30;;;;;;;1.73;1.50;;;;;;;;;;12594295;28;20036;-78
2022/09/18 07:18:32;;;;;;;1.30;1.20;;;;;;;;;;12594273;28;20055;-78
2022/09/18 07:24:35;;;;;;;1.80;1.30;;;;;;;;;;12595068;28;20048;-78
2022/09/18 07:30:39;;;;;;;1.10;1.00;;;;;;;;;;12594374;28;20033;-78
2022/09/18 07:36:41;;;;;;;1.20;1.05;;;;;;;;;;12594651;28;20055;-78
2022/09/18 07:42:42;;;;;;;0.80;0.80;;;;;;;;;;12596007;28;20048;-77
2022/09/18 07:48:45;;;;;;;1.10;1.00;;;;;;;;;;12594182;28;20056;-78
2022/09/18 07:55:07;;;;;;;1.20;1.10;;;;;;;;;;12595404;28;20044;-77
2022/09/18 08:01:09;;;;;;;0.85;0.85;;;;;;;;;;12597573;28;20396;-78
2022/09/18 08:07:23;;;;;;;1.08;0.82;;;;;;;;;;12574014;28;20044;-79
2022/09/18 08:13:41;;;;;;;1.20;0.80;;;;;;;;;;12591066;28;20385;-79
2022/09/18 08:20:08;;;;;;;1.40;1.30;;;;;;;;;;12593794;28;20040;-79
2022/09/18 08:26:30;;;;;;;1.20;1.10;;;;;;;;;;12588940;28;20052;-79
2022/09/18 08:32:35;;;;;;;1.10;1.00;;;;;;;;;;12574513;28;20032;-79
2022/09/18 08:38:38;;;;;;;1.80;1.05;;;;;;;;;;12590020;28;20496;-78
2022/09/18 08:45:14;;;;;;;2.15;1.08;;;;;;;;;;12590349;28;20489;-79
2022/09/18 08:51:33;;;;;;;0.80;0.60;;;;;;;;;;12590027;28;20060;-79
2022/09/18 08:57:35;;;;;;;0.95;0.75;;;;;;;;;;12590282;28;20036;-79
2022/09/18 09:04:01;;;;;;;1.27;0.80;;;;;;;;;;12590440;28;20047;-79
2022/09/18 09:10:05;;;;;;;0.98;0.90;;;;;;;;;;12589570;28;20025;-79
2022/09/18 09:16:15;;;;;;;0.75;0.75;;;;;;;;;;12589159;28;20044;-79
2022/09/18 09:22:19;;;;;;;0.65;0.50;;;;;;;;;;12589121;28;20385;-79
2022/09/18 09:28:33;;;;;;;0.60;0.60;;;;;;;;;;12589092;28;20028;-79
2022/09/18 09:35:20;;;;;;;0.63;0.47;;;;;;;;;;12589129;28;20262;-79
2022/09/18 09:41:54;;;;;;;0.63;0.47;;;;;;;;;;12587350;28;20036;-79
2022/09/18 09:48:15;;;;;;;0.70;0.50;;;;;;;;;;12588785;28;20063;-79
2022/09/18 09:54:20;;;;;;;0.68;0.68;;;;;;;;;;12598885;28;20044;-78
2022/09/18 10:00:22;;;;;;;0.47;0.45;;;;;;;;;;12597887;28;20079;-78
2022/09/18 10:06:37;;;;;;;0.85;0.52;;;;;;;;;;12597206;28;20047;-80
2022/09/18 10:12:43;;;;;;;0.85;0.43;;;;;;;;;;12597920;28;20063;-80
2022/09/18 10:18:46;;;;;;;0.75;0.50;;;;;;;;;;12598173;28;20043;-80
2022/09/18 10:24:54;;;;;;;0.47;0.40;;;;;;;;;;12598062;28;20051;-80
2022/09/18 10:31:01;;;;;;;0.30;0.20;;;;;;;;;;12596138;28;20041;-80
2022/09/18 10:37:13;;;;;;;0.35;0.30;;;;;;;;;;12595920;28;20047;-80
2022/09/18 10:43:18;;;;;;;0.63;0.40;;;;;;;;;;12594372;28;20056;-80
2022/09/18 10:49:25;;;;;;;0.75;0.50;;;;;;;;;;12593210;28;20064;-80
2022/09/18 10:55:28;;;;;;;0.60;0.50;;;;;;;;;;12593668;28;20037;-80
2022/09/18 11:01:38;;;;;;;1.35;0.75;;;;;;;;;;12592476;28;20032;-80
2022/09/18 11:07:46;;;;;;;0.45;0.45;;;;;;;;;;12592842;28;20044;-79
2022/09/18 11:13:51;;;;;;;0.40;0.40;;;;;;;;;;12592626;28;20040;-79
2022/09/18 11:19:59;;;;;;;0.30;0.30;;;;;;;;;;12592900;28;20045;-79
2022/09/18 11:26:14;;;;;;;0.60;0.22;;;;;;;;;;12591427;28;20040;-79
2022/09/18 11:32:24;;;;;;;1.38;0.50;;;;;;;;;;12593191;28;20332;-79
2022/09/18 11:38:28;;;;;;;0.50;0.30;;;;;;;;;;12574996;28;20039;-79
2022/09/18 11:44:32;;;;;;;0.70;0.40;;;;;;;;;;12590396;28;20045;-79
2022/09/18 11:50:36;;;;;;;0.55;0.40;;;;;;;;;;12591141;28;20057;-79
2022/09/18 11:56:46;;;;;;;1.42;0.30;;;;;;;;;;12590333;28;20032;-79
2022/09/18 12:03:13;;;;;;;0.43;0.40;;;;;;;;;;12590632;28;20057;-79
2022/09/18 12:09:20;;;;;;;0.50;0.47;;;;;;;;;;12571510;28;20045;-79
2022/09/18 12:15:27;;;;;;;0.65;0.50;;;;;;;;;;12573681;28;20035;-79
2022/09/18 12:21:35;;;;;;;0.52;0.40;;;;;;;;;;12590306;28;20488;-79
2022/09/18 12:27:40;;;;;;;0.65;0.50;;;;;;;;;;12588999;28;20036;-79
2022/09/18 12:33:49;;;;;;;0.60;0.40;;;;;;;;;;12590158;28;20020;-80
2022/09/18 12:40:03;;;;;;;1.00;0.57;;;;;;;;;;12589064;28;20044;-80
2022/09/18 12:46:05;;;;;;;1.20;0.60;;;;;;;;;;12590113;28;20053;-80
2022/09/18 12:52:18;;;;;;;0.55;0.50;;;;;;;;;;12589189;28;20045;-80
2022/09/18 12:58:39;;;;;;;0.80;0.60;;;;;;;;;;12588313;28;20043;-80
2022/09/18 13:04:47;;;;;;;0.63;0.60;;;;;;;;;;12589177;28;20122;-79
2022/09/18 13:10:51;;;;;;;0.47;0.43;;;;;;;;;;12589295;28;20500;-79
2022/09/18 13:16:59;;;;;;;0.50;0.47;;;;;;;;;;12589261;28;20036;-79
2022/09/18 13:23:01;;;;;;;0.90;0.45;;;;;;;;;;12588678;28;20075;-79
2022/09/18 13:29:04;;;;;;;;;;;;;;;;;;12599630;28;20035;-79
2022/09/18 13:35:14;;;;;;;0.40;0.40;;;;;;;;;;12598504;28;20324;-79
2022/09/18 13:41:17;;;;;;;0.88;0.47;;;;;;;;;;12598445;28;20534;-79
2022/09/18 13:47:19;;;;;;;0.40;0.30;;;;;;;;;;12596351;28;20413;-79
2022/09/18 13:53:31;;;;;;;0.50;0.43;;;;;;;;;;12597863;28;20388;-78
2022/09/18 13:59:54;;;;;;;0.50;0.50;;;;;;;;;;12596184;28;20370;-79
2022/09/18 14:05:56;;;;;;;0.60;0.45;;;;;;;;;;12596174;28;20041;-81
2022/09/18 14:11:57;;;;;;;;;;;;;;;;;;12595659;28;20028;-80
2022/09/18 14:18:16;;;;;;;0.97;0.30;;;;;;;;;;12597778;28;19931;-80
2022/09/18 14:24:22;;;;;;;0.32;0.30;;;;;;;;;;12595350;28;20515;-81
2022/09/18 14:30:25;;;;;;;0.57;0.38;;;;;;;;;;12595708;28;20033;-81
2022/09/18 14:36:27;;;;;;;1.65;0.52;;;;;;;;;;12595630;28;20043;-81
2022/09/18 14:42:29;;;;;;;1.13;0.50;;;;;;;;;;12595213;28;20040;-81
2022/09/18 14:48:34;;;;;;;0.50;0.30;;;;;;;;;;12594941;28;20071;-81
2022/09/18 14:54:36;;;;;;;0.50;0.38;;;;;;;;;;12595443;28;20311;-80
2022/09/18 15:00:38;;;;;;;;;;;;;;;;;;12595587;28;20043;-80
2022/09/18 15:06:48;;;;;;;1.93;0.57;;;;;;;;;;12593512;28;20357;-80
2022/09/18 15:12:50;;;;;;;1.13;0.45;;;;;;;;;;12594541;28;20037;-81
2022/09/18 15:18:53;;;;;;;0.30;0.30;;;;;;;;;;12593613;28;20465;-81
2022/09/18 15:24:59;;;;;;;0.40;0.40;;;;;;;;;;12594676;28;20051;-81
2022/09/18 15:31:03;;;;;;;0.57;0.40;;;;;;;;;;12595349;28;20028;-81
2022/09/18 15:37:05;;;;;;;0.82;0.47;;;;;;;;;;12595717;28;20033;-81
2022/09/18 15:43:26;;;;;;;0.40;0.40;;;;;;;;;;12578246;28;20044;-80
2022/09/18 15:49:29;;;;;;;0.50;0.50;;;;;;;;;;12595804;28;20064;-81
2022/09/18 15:55:32;;;;;;;0.93;0.50;;;;;;;;;;12595086;28;20028;-81
2022/09/18 16:01:35;;;;;;;1.15;0.50;;;;;;;;;;12594055;28;20040;-81
2022/09/18 16:07:39;;;;;;;0.40;0.40;;;;;;;;;;12599401;28;20040;-81
2022/09/18 16:13:41;;;;;;;1.25;0.50;;;;;;;;;;12593231;28;20385;-81
2022/09/18 16:19:43;;;;;;;0.60;0.30;;;;;;;;;;12592919;28;20032;-81
2022/09/18 16:26:12;;;;;;;0.30;0.30;;;;;;;;;;12594410;28;20048;-81
2022/09/18 16:32:14;;;;;;;0.80;0.35;;;;;;;;;;12592216;28;20043;-81
2022/09/18 16:38:16;;;;;;;0.40;0.40;;;;;;;;;;12594698;28;20059;-81
2022/09/18 16:44:18;;;;;;;0.40;0.40;;;;;;;;;;12602922;28;20489;-80
2022/09/18 16:50:19;;;;;;;0.40;0.40;;;;;;;;;;12596245;28;20044;-81
2022/09/18 16:56:37;;;;;;;0.60;0.40;;;;;;;;;;12593136;28;20052;-80
2022/09/18 17:02:39;;;;;;;0.43;0.43;;;;;;;;;;12591335;28;20512;-81
2022/09/18 17:08:41;;;;;;;0.40;0.32;;;;;;;;;;12591020;28;20043;-80
2022/09/18 17:14:43;;;;;;;0.30;0.30;;;;;;;;;;12591506;28;20389;-81
2022/09/18 17:20:44;;;;;;;0.60;0.50;;;;;;;;;;12591705;28;20043;-80
2022/09/18 17:26:46;;;;;;;0.63;0.30;;;;;;;;;;12591624;28;20036;-80
2022/09/18 17:32:48;;;;;;;;;;;;;;;;;;12592342;28;20032;-80
2022/09/18 17:38:50;;;;;;;0.82;0.40;;;;;;;;;;12591213;28;19912;-81
2022/09/18 17:44:52;;;;;;;0.28;0.28;;;;;;;;;;12573959;28;20401;-81
2022/09/18 17:50:58;;;;;;;0.30;0.30;;;;;;;;;;12590043;28;20059;-81
2022/09/18 17:57:00;;;;;;;0.50;0.30;;;;;;;;;;12590108;28;20044;-80
2022/09/18 18:03:02;;;;;;;0.47;0.47;;;;;;;;;;12591438;28;20501;-80
2022/09/18 18:09:05;;;;;;;0.55;0.50;;;;;;;;;;12591284;28;20036;-80
2022/09/18 18:15:07;;;;;;;0.73;0.40;;;;;;;;;;12599313;28;20050;-81
2022/09/18 18:21:09;;;;;;;0.40;0.40;;;;;;;;;;12601314;28;20047;-80
2022/09/18 18:27:11;;;;;;;;;;;;;;;;;;12599061;28;20493;-80
2022/09/18 18:33:14;;;;;;;0.35;0.35;;;;;;;;;;12599707;28;20108;-80
2022/09/18 18:39:18;;;;;;;0.60;0.47;;;;;;;;;;12599249;28;20032;-79
2022/09/18 18:45:20;;;;;;;0.50;0.50;;;;;;;;;;12597986;28;20052;-80
2022/09/18 18:51:23;;;;;;;0.75;0.57;;;;;;;;;;12612552;28;20051;-79
2022/09/18 18:57:25;;;;;;;0.82;0.70;;;;;;;;;;12611228;28;20047;-80
2022/09/18 19:03:27;;;;;;;0.50;0.50;;;;;;;;;;12598392;28;20240;-80
2022/09/18 19:09:29;;;;;;;0.70;0.50;;;;;;;;;;12596233;28;20029;-79
2022/09/18 19:15:31;;;;;;;0.40;0.35;;;;;;;;;;12594004;28;20047;-80
2022/09/18 19:21:33;;;;;;;0.95;0.90;;;;;;;;;;12598172;28;20033;-79
2022/09/18 19:27:35;;;;;;;0.80;0.80;;;;;;;;;;12595380;28;20048;-79
2022/09/18 19:33:38;;;;;;;0.57;0.52;;;;;;;;;;12595665;28;20037;-79
2022/09/18 19:39:40;;;;;;;1.08;0.90;;;;;;;;;;12591903;28;20021;-79
2022/09/18 19:45:42;;;;;;;1.00;1.00;;;;;;;;;;12591619;28;20043;-79
2022/09/18 19:51:45;;;;;;;0.95;0.95;;;;;;;;;;12592764;28;20056;-79
2022/09/18 19:57:47;;;;;;;1.40;1.30;;;;;;;;;;12591239;28;20028;-79
2022/09/18 20:03:52;;;;;;;2.30;1.23;;;;;;;;;;12591583;28;20048;-79
2022/09/18 20:09:54;;;;;;;1.42;1.33;;;;;;;;;;12592560;28;20024;-79
2022/09/18 20:16:04;;;;;;;1.65;1.00;;;;;;;;;;12590746;28;20055;-79
2022/09/18 20:22:06;;;;;;;1.35;1.25;;;;;;;;;;12589926;28;20045;-80
2022/09/18 20:28:08;;;;;;;1.50;1.40;;;;;;;;;;12589367;28;20048;-80
2022/09/18 20:34:10;;;;;;;1.70;1.60;;;;;;;;;;12588857;28;20043;-80
2022/09/18 20:40:12;;;;;;;1.50;1.40;;;;;;;;;;12588766;28;20028;-80
2022/09/18 20:46:16;;;;;;;1.97;1.60;;;;;;;;;;12589716;28;20794;-80
2022/09/18 20:52:19;;;;;;;1.35;1.25;;;;;;;;;;12588508;28;20309;-80
2022/09/18 20:58:20;;;;;;;2.00;1.80;;;;;;;;;;12588877;28;20397;-80
2022/09/18 21:04:22;;;;;;;2.37;2.17;;;;;;;;;;12570998;28;20044;-80
2022/09/18 21:10:24;;;;;;;2.53;2.33;;;;;;;;;;12589123;28;20031;-80
2022/09/18 21:16:27;;;;;;;2.60;2.07;;;;;;;;;;12588008;28;20037;-80
2022/09/18 21:22:30;;;;;;;3.05;2.85;;;;;;;;;;12588104;28;20029;-80
2022/09/18 21:28:32;;;;;;;2.50;2.30;;;;;;;;;;12608082;28;20037;-80
2022/09/18 21:34:34;;;;;;;2.63;2.43;;;;;;;;;;12589593;28;20037;-80
2022/09/18 21:40:36;;;;;;;2.40;2.20;;;;;;;;;;12586898;28;20036;-79
2022/09/18 21:46:38;;;;;;;2.10;2.00;;;;;;;;;;12592809;28;20052;-80
2022/09/18 21:52:42;;;;;;;1.70;1.60;;;;;;;;;;12597973;28;20497;-80
2022/09/18 21:58:44;;;;;;;2.35;2.15;;;;;;;;;;12596040;28;20043;-80
2022/09/18 22:04:46;;;;;;;1.85;1.75;;;;;;;;;;12596774;28;20032;-80
2022/09/18 22:10:48;;;;;;;2.28;2.08;;;;;;;;;;12595471;28;20036;-80
2022/09/18 22:16:52;;;;;;;1.90;1.80;;;;;;;;;;12596702;28;20196;-80
2022/09/18 22:22:54;;;;;;;2.05;1.60;;;;;;;;;;12596349;28;20036;-80
2022/09/18 22:28:56;;;;;;;2.50;2.17;;;;;;;;;;12595188;28;20485;-79
2022/09/18 22:34:58;;;;;;;2.15;2.05;;;;;;;;;;12595932;28;20033;-79
2022/09/18 22:41:04;;;;;;;2.10;1.90;;;;;;;;;;12594622;28;20032;-80
2022/09/18 22:47:06;;;;;;;2.00;1.90;;;;;;;;;;12594947;28;20083;-79
2022/09/18 22:53:08;;;;;;;1.77;1.67;;;;;;;;;;12594010;28;20032;-80
2022/09/18 22:59:11;;;;;;;2.33;2.15;;;;;;;;;;12592838;28;20024;-80
2022/09/18 23:05:12;;;;;;;1.77;1.63;;;;;;;;;;12594416;28;20045;-79
2022/09/18 23:11:15;;;;;;;2.00;1.77;;;;;;;;;;12576756;28;20032;-79
2022/09/18 23:17:17;;;;;;;2.35;2.22;;;;;;;;;;12576132;28;20410;-80
2022/09/18 23:23:19;;;;;;;1.70;1.60;;;;;;;;;;12592288;28;20048;-79
2022/09/18 23:29:21;;;;;;;2.00;1.80;;;;;;;;;;12593331;28;20348;-79
2022/09/18 23:35:23;;;;;;;;;;;;;;;;;;12593039;28;20393;-79
2022/09/18 23:41:26;;;;;;;1.98;1.83;;;;;;;;;;12593982;28;19909;-80
2022/09/18 23:47:27;;;;;;;2.20;1.85;;;;;;;;;;12591675;28;20048;-80
2022/09/18 23:53:31;;;;;;;2.93;2.60;;;;;;;;;;12595580;28;20044;-80
2022/09/18 23:59:32;;;;;;;1.90;1.80;;;;;;;;;;12591323;28;20032;-79
